Time;durP1;ratioP1;P1;durP2;ratioP2;P2;SDS_P1;SDS_P2;PMS_P1;PMS_P2;Temp;Humidity;BMP_temperature;BMP_pressure;BME280_temperature;BME280_humidity;BME280_pressure;Samples;Min_cycle;Max_cycle;Signal;HPM_P1;HPM_P2
2022/08/08 00:00:54;;;;;;;1.63;0.93;;;;;;;-148.56;100.00;61375.16;4952120;28;20022;-29
2022/08/08 00:03:21;;;;;;;;;;;;;;;-148.56;100.00;61375.16;4943144;28;20046;-27
2022/08/08 00:06:06;;;;;;;3.25;1.00;;;;;;;-148.56;100.00;61375.16;4944490;28;20048;-30
2022/08/08 00:08:44;;;;;;;2.67;0.70;;;;;;;-148.56;100.00;61375.16;4939885;28;20039;-29
2022/08/08 00:11:38;;;;;;;1.40;0.90;;;;;;;-148.56;100.00;61375.16;4925664;28;20053;-26
2022/08/08 00:14:06;;;;;;;1.58;0.73;;;;;;;-148.56;100.00;61375.16;4944311;28;20554;-26
2022/08/08 00:16:53;;;;;;;1.50;0.80;;;;;;;-148.56;100.00;61375.16;4937665;28;20023;-28
2022/08/08 00:19:49;;;;;;;0.93;0.75;;;;;;;-148.56;100.00;61375.16;4941847;28;20933;-28
2022/08/08 00:22:19;;;;;;;1.60;0.75;;;;;;;-148.56;100.00;61375.16;4937980;28;20046;-28
2022/08/08 00:24:46;;;;;;;1.02;0.90;;;;;;;-148.56;100.00;61375.16;4947336;28;20042;-27
2022/08/08 00:27:12;;;;;;;1.33;0.75;;;;;;;-148.56;100.00;61375.16;4941648;28;20138;-26
2022/08/08 00:30:00;;;;;;;0.70;0.70;;;;;;;-148.56;100.00;61375.16;4935077;28;20057;-27
2022/08/08 00:32:31;;;;;;;1.23;0.70;;;;;;;-148.56;100.00;61375.16;4934995;28;21034;-29
2022/08/08 00:35:25;;;;;;;0.98;0.73;;;;;;;-148.56;100.00;61375.16;4941414;28;20770;-29
2022/08/08 00:38:06;;;;;;;1.00;0.70;;;;;;;-148.56;100.00;61375.16;4941894;28;20045;-29
2022/08/08 00:40:47;;;;;;;1.85;0.93;;;;;;;-148.56;100.00;61375.16;4943397;28;20118;-27
2022/08/08 00:43:25;;;;;;;1.48;0.90;;;;;;;-148.56;100.00;61375.16;4942406;28;20053;-27
2022/08/08 00:46:11;;;;;;;1.50;0.70;;;;;;;-148.56;100.00;61375.16;4941571;28;20161;-28
2022/08/08 00:49:01;;;;;;;1.00;0.80;;;;;;;-148.56;100.00;61375.16;4938516;28;20392;-28
2022/08/08 00:51:39;;;;;;;0.95;0.60;;;;;;;-148.56;100.00;61375.16;4941296;28;20699;-26
2022/08/08 00:54:39;;;;;;;1.30;0.73;;;;;;;-148.56;100.00;61375.16;4938363;28;20154;-29
2022/08/08 00:57:10;;;;;;;1.83;1.08;;;;;;;-148.56;100.00;61375.16;4941798;28;20053;-29
2022/08/08 01:00:01;;;;;;;1.10;0.60;;;;;;;-148.56;100.00;61375.16;4936970;28;20470;-26
2022/08/08 01:02:57;;;;;;;0.73;0.68;;;;;;;-148.56;100.00;61375.16;4938967;28;21068;-27
2022/08/08 01:05:41;;;;;;;1.88;0.80;;;;;;;-148.56;100.00;61375.16;4938621;28;20026;-32
2022/08/08 01:08:32;;;;;;;1.10;0.68;;;;;;;-148.56;100.00;61375.16;4938432;28;20042;-29
2022/08/08 01:11:04;;;;;;;1.13;0.60;;;;;;;-148.56;100.00;61375.16;4934380;28;20117;-27
2022/08/08 01:13:57;;;;;;;1.08;0.70;;;;;;;-148.56;100.00;61375.16;4941813;28;20037;-26
2022/08/08 01:16:52;;;;;;;0.68;0.60;;;;;;;-148.56;100.00;61375.16;4933149;28;20695;-29
2022/08/08 01:19:30;;;;;;;0.70;0.65;;;;;;;-148.56;100.00;61375.16;4940621;28;20875;-30
2022/08/08 01:22:04;;;;;;;2.25;0.85;;;;;;;-148.56;100.00;61375.16;4937777;28;20030;-26
2022/08/08 01:24:42;;;;;;;1.17;0.57;;;;;;;-148.56;100.00;61375.16;4937610;28;22142;-30
2022/08/08 01:27:25;;;;;;;0.75;0.75;;;;;;;-148.56;100.00;61375.16;4930814;28;20030;-27
2022/08/08 01:30:29;;;;;;;1.20;0.80;;;;;;;-148.56;100.00;61375.16;4933946;28;20070;-31
2022/08/08 01:33:31;;;;;;;1.00;0.65;;;;;;;-148.56;100.00;61375.16;4936443;28;20088;-28
2022/08/08 01:36:18;;;;;;;0.85;0.70;;;;;;;-148.56;100.00;61375.16;4932899;28;20301;-28
2022/08/08 01:39:07;;;;;;;1.55;0.65;;;;;;;-148.56;100.00;61375.16;4941037;28;20030;-28
2022/08/08 01:42:07;;;;;;;0.68;0.60;;;;;;;-148.56;100.00;61375.16;4934197;28;20034;-28
2022/08/08 01:44:48;;;;;;;1.27;0.73;;;;;;;-148.56;100.00;61375.16;4940924;28;20030;-28
2022/08/08 01:47:46;;;;;;;1.45;0.70;;;;;;;-148.56;100.00;61375.16;4932321;28;20751;-28
2022/08/08 01:50:11;;;;;;;1.10;0.80;;;;;;;-148.56;100.00;61375.16;4945348;28;20053;-27
2022/08/08 01:52:57;;;;;;;0.93;0.50;;;;;;;-148.56;100.00;61375.16;4939375;28;20027;-28
2022/08/08 01:55:59;;;;;;;0.85;0.63;;;;;;;-148.56;100.00;61375.16;4941802;28;20042;-27
2022/08/08 01:58:40;;;;;;;1.73;0.70;;;;;;;-148.56;100.00;61375.16;4933646;28;20026;-31
2022/08/08 02:01:17;;;;;;;1.17;0.80;;;;;;;-148.56;100.00;61375.16;4930488;28;20731;-30
2022/08/08 02:03:55;;;;;;;4.38;0.70;;;;;;;-148.56;100.00;61375.16;4936817;28;20029;-32
2022/08/08 02:06:56;;;;;;;0.88;0.55;;;;;;;-148.56;100.00;61375.16;4937404;28;20050;-29
2022/08/08 02:09:49;;;;;;;0.93;0.80;;;;;;;-148.56;100.00;61375.16;4929131;28;20034;-27
2022/08/08 02:12:22;;;;;;;1.15;0.70;;;;;;;-148.56;100.00;61375.16;4936979;28;20294;-25
2022/08/08 02:15:08;;;;;;;1.20;0.80;;;;;;;-148.56;100.00;61375.16;4935244;28;20045;-32
2022/08/08 02:17:50;;;;;;;2.95;0.60;;;;;;;-148.56;100.00;61375.16;4940856;28;20030;-29
2022/08/08 02:20:19;;;;;;;3.60;0.70;;;;;;;-148.56;100.00;61375.16;4935383;28;20041;-30
2022/08/08 02:23:15;;;;;;;1.00;0.70;;;;;;;-148.56;100.00;61375.16;4940583;28;20789;-30
2022/08/08 02:25:47;;;;;;;0.60;0.50;;;;;;;-148.56;100.00;61375.16;4939150;28;20780;-27
2022/08/08 02:28:20;;;;;;;;;;;;;;;-148.56;100.00;61375.16;4937727;28;20026;-28
2022/08/08 02:30:49;;;;;;;0.60;0.60;;;;;;;-148.56;100.00;61375.16;4932201;28;20844;-27
2022/08/08 02:33:25;;;;;;;1.88;0.80;;;;;;;-148.56;100.00;61375.16;4935937;28;20092;-28
2022/08/08 02:35:58;;;;;;;2.38;0.60;;;;;;;-148.56;100.00;61375.16;4937008;28;20026;-26
2022/08/08 02:38:42;;;;;;;0.77;0.60;;;;;;;-148.56;100.00;61375.16;4934641;28;20038;-27
2022/08/08 02:41:29;;;;;;;1.15;0.70;;;;;;;-148.56;100.00;61375.16;4936218;28;20022;-26
2022/08/08 02:44:19;;;;;;;2.05;0.70;;;;;;;-148.56;100.00;61375.16;4939103;28;20041;-27
2022/08/08 02:46:51;;;;;;;1.08;0.80;;;;;;;-148.56;100.00;61375.16;4940632;28;20039;-25
2022/08/08 02:49:34;;;;;;;4.95;0.50;;;;;;;-148.56;100.00;61375.16;4940965;28;20034;-29
2022/08/08 02:52:44;;;;;;;1.25;0.73;;;;;;;-148.56;100.00;61375.16;4935984;28;20621;-30
2022/08/08 02:55:34;;;;;;;1.30;0.70;;;;;;;-148.56;100.00;61375.16;4931379;28;20646;-29
2022/08/08 02:58:11;;;;;;;2.45;0.70;;;;;;;-148.56;100.00;61375.16;4930921;28;20054;-28
2022/08/08 03:00:58;;;;;;;1.63;0.70;;;;;;;-148.56;100.00;61375.16;4930405;28;20041;-31
2022/08/08 03:03:50;;;;;;;2.05;0.80;;;;;;;-148.56;100.00;61375.16;4931267;28;20102;-33
2022/08/08 03:06:22;;;;;;;3.83;0.70;;;;;;;-148.56;100.00;61375.16;4935111;28;20037;-30
2022/08/08 03:09:24;;;;;;;3.80;0.88;;;;;;;-148.56;100.00;61375.16;4939050;28;20034;-28
2022/08/08 03:12:21;;;;;;;3.55;0.90;;;;;;;-148.56;100.00;61375.16;4934155;28;20030;-28
2022/08/08 03:15:01;;;;;;;2.50;0.82;;;;;;;-148.56;100.00;61375.16;4929538;28;20049;-30
2022/08/08 03:17:37;;;;;;;1.33;0.75;;;;;;;-148.56;100.00;61375.16;4936644;28;20835;-29
2022/08/08 03:22:28;;;;;;;0.98;0.70;;;;;;;-148.56;100.00;61375.16;4943506;28;20037;-29
2022/08/08 03:24:53;;;;;;;1.87;0.90;;;;;;;-148.56;100.00;61375.16;4937221;28;20041;-31
2022/08/08 03:27:20;;;;;;;0.70;0.60;;;;;;;-148.56;100.00;61375.16;4939899;28;22350;-25
2022/08/08 03:29:51;;;;;;;3.00;0.63;;;;;;;-148.56;100.00;61375.16;4943030;28;20043;-30
2022/08/08 03:33:18;;;;;;;0.60;0.60;;;;;;;-148.56;100.00;61375.16;4944565;28;20145;-31
2022/08/08 03:35:12;;;;;;;2.17;0.80;;;;;;;-148.56;100.00;61375.16;4940156;28;20046;-27
2022/08/08 03:37:37;;;;;;;1.60;0.80;;;;;;;-148.56;100.00;61375.16;4939468;28;20097;-26
2022/08/08 03:40:03;;;;;;;1.05;0.80;;;;;;;-148.56;100.00;61375.16;4945909;28;20034;-27
2022/08/08 03:42:29;;;;;;;1.83;0.70;;;;;;;-148.56;100.00;61375.16;4938847;28;20128;-31
2022/08/08 03:44:55;;;;;;;1.17;0.60;;;;;;;-148.56;100.00;61375.16;4944963;28;20224;-30
2022/08/08 03:47:21;;;;;;;1.58;0.75;;;;;;;-148.56;100.00;61375.16;4941284;28;20034;-31
2022/08/08 03:49:49;;;;;;;3.90;0.77;;;;;;;-148.56;100.00;61375.16;4940130;28;20735;-30
2022/08/08 03:52:15;;;;;;;1.38;0.70;;;;;;;-148.56;100.00;61375.16;4945482;28;20061;-32
2022/08/08 03:54:44;;;;;;;1.45;0.65;;;;;;;-148.56;100.00;61375.16;4962430;28;20686;-28
2022/08/08 03:57:13;;;;;;;2.30;0.65;;;;;;;-148.56;100.00;61375.16;4946049;28;20173;-27
2022/08/08 03:59:39;;;;;;;1.02;0.80;;;;;;;-148.56;100.00;61375.16;4945601;28;20038;-26
2022/08/08 04:02:15;;;;;;;0.93;0.63;;;;;;;-148.56;100.00;61375.16;4947837;28;20263;-33
2022/08/08 04:04:41;;;;;;;0.77;0.55;;;;;;;-148.56;100.00;61375.16;4943160;28;20942;-29
2022/08/08 04:07:06;;;;;;;1.83;0.90;;;;;;;-148.56;100.00;61375.16;4941779;28;20061;-29
2022/08/08 04:09:31;;;;;;;2.20;0.70;;;;;;;-148.56;100.00;61375.16;4943814;28;20128;-26
2022/08/08 04:11:59;;;;;;;1.70;0.80;;;;;;;-148.56;100.00;61375.16;4943637;28;20042;-28
2022/08/08 04:14:24;;;;;;;0.95;0.60;;;;;;;-148.56;100.00;61375.16;4946200;28;20053;-30
2022/08/08 04:16:50;;;;;;;3.25;1.10;;;;;;;-148.56;100.00;61375.16;4938798;28;20828;-26
2022/08/08 04:19:15;;;;;;;2.25;0.60;;;;;;;-148.56;100.00;61375.16;4938505;28;20045;-30
2022/08/08 04:21:41;;;;;;;1.58;0.70;;;;;;;-148.56;100.00;61375.16;4937392;28;20593;-30
2022/08/08 04:24:06;;;;;;;3.75;0.88;;;;;;;-148.56;100.00;61375.16;4944922;28;20093;-26
2022/08/08 04:26:31;;;;;;;1.23;0.70;;;;;;;-148.56;100.00;61375.16;4936735;28;21870;-28
2022/08/08 04:28:57;;;;;;;1.33;0.77;;;;;;;-148.56;100.00;61375.16;4938413;28;20128;-30
2022/08/08 04:31:22;;;;;;;1.70;0.85;;;;;;;-148.56;100.00;61375.16;4937760;28;20026;-30
2022/08/08 04:33:48;;;;;;;0.88;0.57;;;;;;;-148.56;100.00;61375.16;4947357;28;20817;-30
2022/08/08 04:36:13;;;;;;;4.22;0.70;;;;;;;-148.56;100.00;61375.16;4946057;28;20613;-32
2022/08/08 04:38:38;;;;;;;3.05;0.88;;;;;;;-148.56;100.00;61375.16;4941259;28;20038;-28
2022/08/08 04:41:04;;;;;;;1.52;0.90;;;;;;;-148.56;100.00;61375.16;4944659;28;20194;-29
2022/08/08 04:43:29;;;;;;;2.45;0.70;;;;;;;-148.56;100.00;61375.16;4942685;28;21019;-30
2022/08/08 04:45:55;;;;;;;3.30;0.80;;;;;;;-148.56;100.00;61375.16;4939829;28;20030;-26
2022/08/08 04:48:20;;;;;;;4.43;1.00;;;;;;;-148.56;100.00;61375.16;4941085;28;20038;-29
2022/08/08 04:50:45;;;;;;;2.20;0.70;;;;;;;-148.56;100.00;61375.16;4939878;28;20499;-28
2022/08/08 04:53:11;;;;;;;2.53;0.80;;;;;;;-148.56;100.00;61375.16;4944441;28;20045;-27
2022/08/08 04:55:36;;;;;;;0.98;0.70;;;;;;;-148.56;100.00;61375.16;4943173;28;20037;-32
2022/08/08 04:58:02;;;;;;;2.80;0.80;;;;;;;-148.56;100.00;61375.16;4936853;28;20571;-28
2022/08/08 05:00:27;;;;;;;1.63;0.77;;;;;;;-148.56;100.00;61375.16;4943541;28;20026;-25
2022/08/08 05:02:52;;;;;;;2.78;1.08;;;;;;;-148.56;100.00;61375.16;4937169;28;20031;-28
2022/08/08 05:05:18;;;;;;;0.75;0.70;;;;;;;-148.56;100.00;61375.16;4946926;28;20723;-27
2022/08/08 05:07:45;;;;;;;1.58;0.70;;;;;;;-148.56;100.00;61375.16;4943539;28;20026;-28
2022/08/08 05:10:10;;;;;;;2.60;0.80;;;;;;;-148.56;100.00;61375.16;4946784;28;20033;-31
2022/08/08 05:12:36;;;;;;;1.38;0.73;;;;;;;-148.56;100.00;61375.16;4945844;28;20030;-27
2022/08/08 05:15:01;;;;;;;1.55;0.80;;;;;;;-148.56;100.00;61375.16;4941352;28;20037;-27
2022/08/08 05:17:27;;;;;;;1.23;0.80;;;;;;;-148.56;100.00;61375.16;4942348;28;20390;-33
2022/08/08 05:19:52;;;;;;;3.40;0.88;;;;;;;-148.56;100.00;61375.16;4936470;28;20030;-25
2022/08/08 05:22:17;;;;;;;1.50;0.65;;;;;;;-148.56;100.00;61375.16;4939527;28;20030;-28
2022/08/08 05:24:43;;;;;;;4.00;0.68;;;;;;;-148.56;100.00;61375.16;4941830;28;20892;-27
2022/08/08 05:27:08;;;;;;;1.70;0.82;;;;;;;-148.56;100.00;61375.16;4937511;28;20680;-29
2022/08/08 05:29:34;;;;;;;1.38;0.80;;;;;;;-148.56;100.00;61375.16;4943742;28;20030;-27
2022/08/08 05:31:59;;;;;;;1.73;0.90;;;;;;;-148.56;100.00;61375.16;4937462;28;20993;-29
2022/08/08 05:34:29;;;;;;;1.10;0.75;;;;;;;-148.56;100.00;61375.16;4932491;28;20039;-29
2022/08/08 05:36:55;;;;;;;1.85;0.90;;;;;;;-148.56;100.00;61375.16;4937648;28;20172;-31
2022/08/08 05:39:21;;;;;;;1.92;1.00;;;;;;;-148.56;100.00;61375.16;4933987;28;21072;-29
2022/08/08 05:41:51;;;;;;;2.03;1.00;;;;;;;-148.56;100.00;61375.16;4939498;28;20244;-29
2022/08/08 05:44:25;;;;;;;1.50;0.80;;;;;;;-148.56;100.00;61375.16;4937050;28;20045;-31
2022/08/08 05:46:54;;;;;;;1.63;0.80;;;;;;;-148.56;100.00;61375.16;4936749;28;22395;-27
2022/08/08 05:49:20;;;;;;;2.22;1.10;;;;;;;-148.56;100.00;61375.16;4941473;28;20137;-29
2022/08/08 05:51:45;;;;;;;1.35;0.90;;;;;;;-148.56;100.00;61375.16;4941067;28;20038;-28
2022/08/08 05:54:11;;;;;;;2.60;0.88;;;;;;;-148.56;100.00;61375.16;4941374;28;20093;-29
2022/08/08 05:56:38;;;;;;;4.97;1.10;;;;;;;-148.56;100.00;61375.16;4942901;28;20034;-29
2022/08/08 05:59:04;;;;;;;1.83;1.02;;;;;;;-148.56;100.00;61375.16;4939057;28;20120;-27
2022/08/08 06:01:29;;;;;;;2.63;1.08;;;;;;;-148.56;100.00;61375.16;4940328;28;20026;-25
2022/08/08 06:03:58;;;;;;;2.10;0.90;;;;;;;-148.56;100.00;61375.16;4942698;28;21006;-27
2022/08/08 06:06:24;;;;;;;3.28;0.90;;;;;;;-148.56;100.00;61375.16;4921287;28;20031;-29
2022/08/08 06:08:50;;;;;;;4.35;1.05;;;;;;;-148.56;100.00;61375.16;4921124;28;20046;-27
2022/08/08 06:11:16;;;;;;;6.57;1.30;;;;;;;-148.56;100.00;61375.16;4939484;28;20030;-30
2022/08/08 06:13:41;;;;;;;1.67;0.70;;;;;;;-148.56;100.00;61375.16;4942066;28;20585;-29
2022/08/08 06:16:07;;;;;;;3.83;0.93;;;;;;;-148.56;100.00;61375.16;4939596;28;20546;-33
2022/08/08 06:18:32;;;;;;;3.53;0.80;;;;;;;-148.56;100.00;61375.16;4930969;28;20045;-33
2022/08/08 06:20:59;;;;;;;4.75;1.05;;;;;;;-148.56;100.00;61375.16;4933499;28;20037;-28
2022/08/08 06:23:26;;;;;;;18.95;2.45;;;;;;;-148.56;100.00;61375.16;4935994;28;20129;-31
2022/08/08 06:26:01;;;;;;;7.25;2.08;;;;;;;-148.56;100.00;61375.16;4935729;28;20096;-31
2022/08/08 06:28:34;;;;;;;9.52;1.45;;;;;;;-148.56;100.00;61375.16;4928547;28;20121;-33
2022/08/08 06:31:02;;;;;;;15.93;1.90;;;;;;;-148.56;100.00;61375.16;4933059;28;21397;-27
2022/08/08 06:33:47;;;;;;;17.20;2.38;;;;;;;-148.56;100.00;61375.16;4929939;28;20023;-29
2022/08/08 06:36:12;;;;;;;22.83;2.83;;;;;;;-148.56;100.00;61375.16;4931800;28;20165;-27
2022/08/08 06:38:38;;;;;;;19.98;2.65;;;;;;;-148.56;100.00;61375.16;4920949;28;20636;-26
2022/08/08 06:41:05;;;;;;;14.30;2.55;;;;;;;-148.56;100.00;61375.16;4944237;28;20031;-30
2022/08/08 06:43:33;;;;;;;19.10;2.83;;;;;;;-148.56;100.00;61375.16;4941138;28;20069;-30
2022/08/08 06:45:59;;;;;;;14.93;2.47;;;;;;;-148.56;100.00;61375.16;4941666;28;20049;-30
2022/08/08 06:48:24;;;;;;;17.73;3.00;;;;;;;-148.56;100.00;61375.16;4944780;28;20074;-28
2022/08/08 06:50:50;;;;;;;17.35;2.45;;;;;;;-148.56;100.00;61375.16;4941466;28;20156;-28
2022/08/08 06:53:15;;;;;;;19.10;2.45;;;;;;;-148.56;100.00;61375.16;4939182;28;20038;-28
2022/08/08 06:55:41;;;;;;;11.43;2.50;;;;;;;-148.56;100.00;61375.16;4919837;28;20722;-28
2022/08/08 06:58:06;;;;;;;9.23;2.25;;;;;;;-148.56;100.00;61375.16;4940699;28;20049;-29
2022/08/08 07:00:33;;;;;;;7.82;2.03;;;;;;;-148.56;100.00;61375.16;4943894;28;21567;-28
2022/08/08 07:02:59;;;;;;;6.22;2.30;;;;;;;-148.56;100.00;61375.16;4954795;28;20049;-27
2022/08/08 07:05:25;;;;;;;7.95;1.98;;;;;;;-148.56;100.00;61375.16;4939956;28;20030;-28
2022/08/08 07:07:53;;;;;;;10.32;2.08;;;;;;;-148.56;100.00;61375.16;4947574;28;20039;-30
2022/08/08 07:10:20;;;;;;;6.10;1.80;;;;;;;-148.56;100.00;61375.16;4940237;28;20124;-26
2022/08/08 07:12:52;;;;;;;11.90;2.08;;;;;;;-148.56;100.00;61375.16;4939763;28;20087;-27
2022/08/08 07:15:17;;;;;;;9.73;1.77;;;;;;;-148.56;100.00;61375.16;4941028;28;20730;-26
2022/08/08 07:17:47;;;;;;;8.20;2.20;;;;;;;-148.56;100.00;61375.16;4928493;28;20125;-28
2022/08/08 07:20:26;;;;;;;5.82;1.90;;;;;;;-148.56;100.00;61375.16;4939817;28;20629;-27
2022/08/08 07:22:58;;;;;;;7.82;2.10;;;;;;;-148.56;100.00;61375.16;4937872;28;20042;-25
2022/08/08 07:25:24;;;;;;;4.30;1.95;;;;;;;-148.56;100.00;61375.16;4936474;28;20104;-28
2022/08/08 07:27:50;;;;;;;6.07;2.03;;;;;;;-148.56;100.00;61375.16;4919107;28;20594;-26
2022/08/08 07:30:16;;;;;;;4.85;1.88;;;;;;;-148.56;100.00;61375.16;4935477;28;20038;-30
2022/08/08 07:32:41;;;;;;;4.88;2.20;;;;;;;-148.56;100.00;61375.16;4939750;28;20529;-30
2022/08/08 07:35:07;;;;;;;3.38;1.73;;;;;;;-148.56;100.00;61375.16;4942940;28;20141;-26
2022/08/08 07:37:35;;;;;;;2.53;1.83;;;;;;;-148.56;100.00;61375.16;4920206;28;20397;-29
2022/08/08 07:40:00;;;;;;;5.65;1.90;;;;;;;-148.56;100.00;61375.16;4944239;28;20349;-28
2022/08/08 07:42:25;;;;;;;6.75;2.00;;;;;;;-148.56;100.00;61375.16;4937883;28;20769;-29
2022/08/08 07:44:51;;;;;;;5.65;2.00;;;;;;;-148.56;100.00;61375.16;4933798;28;20038;-30
2022/08/08 07:47:16;;;;;;;11.18;2.45;;;;;;;-148.56;100.00;61375.16;4938364;28;20038;-26
2022/08/08 07:49:42;;;;;;;8.27;2.25;;;;;;;-148.56;100.00;61375.16;4939862;28;20038;-32
2022/08/08 07:52:09;;;;;;;3.33;1.70;;;;;;;-148.56;100.00;61375.16;4938718;28;20034;-29
2022/08/08 07:54:57;;;;;;;7.05;2.10;;;;;;;-148.56;100.00;61375.16;4939410;28;21329;-27
2022/08/08 07:57:29;;;;;;;3.15;1.88;;;;;;;-148.56;100.00;61375.16;4937020;28;20034;-30
2022/08/08 08:00:06;;;;;;;4.93;2.00;;;;;;;-148.56;100.00;61375.16;4937360;28;20030;-30
2022/08/08 08:02:38;;;;;;;4.15;1.70;;;;;;;-148.56;100.00;61375.16;4939197;28;20109;-30
2022/08/08 08:05:04;;;;;;;5.32;1.90;;;;;;;-148.56;100.00;61375.16;4940883;28;20034;-30
2022/08/08 08:07:33;;;;;;;14.65;2.20;;;;;;;-148.56;100.00;61375.16;4943735;28;20152;-26
2022/08/08 08:10:02;;;;;;;6.95;1.95;;;;;;;-148.56;100.00;61375.16;4924525;28;20157;-30
2022/08/08 08:12:28;;;;;;;6.82;2.10;;;;;;;-148.56;100.00;61375.16;4944172;28;20128;-28
2022/08/08 08:15:00;;;;;;;4.50;2.03;;;;;;;-148.56;100.00;61375.16;4934878;28;20584;-26
2022/08/08 08:17:26;;;;;;;4.93;1.95;;;;;;;-148.56;100.00;61375.16;4947948;28;20153;-27
2022/08/08 08:19:55;;;;;;;4.70;1.90;;;;;;;-148.56;100.00;61375.16;4931610;28;21678;-30
2022/08/08 08:22:20;;;;;;;5.65;1.90;;;;;;;-148.56;100.00;61375.16;4937320;28;20026;-29
2022/08/08 08:24:46;;;;;;;5.45;2.13;;;;;;;-148.56;100.00;61375.16;4942541;28;20100;-29
2022/08/08 08:27:11;;;;;;;3.67;1.88;;;;;;;-148.56;100.00;61375.16;4937737;28;20522;-27
2022/08/08 08:29:37;;;;;;;7.35;2.00;;;;;;;-148.56;100.00;61375.16;4938960;28;20030;-28
2022/08/08 08:32:02;;;;;;;7.18;2.10;;;;;;;-148.56;100.00;61375.16;4937442;28;20769;-28
2022/08/08 08:34:27;;;;;;;5.80;1.95;;;;;;;-148.56;100.00;61375.16;4939364;28;20034;-29
2022/08/08 08:36:53;;;;;;;7.05;2.30;;;;;;;-148.56;100.00;61375.16;4941489;28;20038;-25
2022/08/08 08:39:18;;;;;;;5.68;2.28;;;;;;;-148.56;100.00;61375.16;4939626;28;20088;-27
2022/08/08 08:41:44;;;;;;;7.53;1.70;;;;;;;-148.56;100.00;61375.16;4942951;28;22292;-30
2022/08/08 08:44:09;;;;;;;4.43;2.10;;;;;;;-148.56;100.00;61375.16;4945019;28;20049;-27
2022/08/08 08:46:35;;;;;;;3.50;1.85;;;;;;;-148.56;100.00;61375.16;4943653;28;20034;-32
2022/08/08 08:49:00;;;;;;;3.47;1.90;;;;;;;-148.56;100.00;61375.16;4926369;28;20442;-32
2022/08/08 08:51:26;;;;;;;5.95;1.75;;;;;;;-148.56;100.00;61375.16;4944859;28;22452;-26
2022/08/08 08:53:53;;;;;;;3.17;1.80;;;;;;;-148.56;100.00;61375.16;4947489;28;20030;-32
2022/08/08 08:56:19;;;;;;;2.97;1.60;;;;;;;-148.56;100.00;61375.16;4948373;28;20667;-32
2022/08/08 08:58:48;;;;;;;3.97;1.70;;;;;;;-148.56;100.00;61375.16;4940579;28;20049;-27
2022/08/08 09:01:14;;;;;;;4.68;1.75;;;;;;;-148.56;100.00;61375.16;4941580;28;20026;-26
2022/08/08 09:03:42;;;;;;;3.05;1.80;;;;;;;-148.56;100.00;61375.16;4940882;28;20031;-28
2022/08/08 09:06:12;;;;;;;4.47;1.70;;;;;;;-148.56;100.00;61375.16;4945361;28;20035;-28
2022/08/08 09:08:38;;;;;;;3.00;1.77;;;;;;;-148.56;100.00;61375.16;4941349;28;20049;-28
2022/08/08 09:11:08;;;;;;;3.47;1.83;;;;;;;-148.56;100.00;61375.16;4944791;28;20042;-26
2022/08/08 09:13:35;;;;;;;3.83;1.70;;;;;;;-148.56;100.00;61375.16;4946912;28;20034;-32
2022/08/08 09:16:00;;;;;;;2.22;1.60;;;;;;;-148.56;100.00;61375.16;4948630;28;20538;-28
2022/08/08 09:18:25;;;;;;;7.07;1.90;;;;;;;-148.56;100.00;61375.16;4959285;28;20037;-26
2022/08/08 09:20:51;;;;;;;2.45;1.60;;;;;;;-148.56;100.00;61375.16;4946807;28;20077;-28
2022/08/08 09:23:16;;;;;;;3.85;1.77;;;;;;;-148.56;100.00;61375.16;4949368;28;20030;-27
2022/08/08 09:25:59;;;;;;;3.58;1.70;;;;;;;-148.56;100.00;61375.16;4945965;28;20109;-29
2022/08/08 09:28:27;;;;;;;4.43;1.90;;;;;;;-148.56;100.00;61375.16;4945453;28;20092;-27
2022/08/08 09:30:52;;;;;;;2.78;1.80;;;;;;;-148.56;100.00;61375.16;4945274;28;20037;-30
2022/08/08 09:33:18;;;;;;;4.07;2.00;;;;;;;-148.56;100.00;61375.16;4941558;28;20034;-29
2022/08/08 09:35:45;;;;;;;4.45;1.83;;;;;;;-148.56;100.00;61375.16;4948218;28;20096;-36
2022/08/08 09:38:10;;;;;;;3.58;1.98;;;;;;;-148.56;100.00;61375.16;4941078;28;20634;-30
2022/08/08 09:40:36;;;;;;;4.93;1.83;;;;;;;-148.56;100.00;61375.16;4946061;28;20124;-28
2022/08/08 09:43:19;;;;;;;3.67;1.70;;;;;;;-148.56;100.00;61375.16;4940613;28;20030;-28
2022/08/08 09:45:54;;;;;;;3.58;2.00;;;;;;;-148.56;100.00;61375.16;4944817;28;20033;-28
2022/08/08 09:48:19;;;;;;;2.85;1.60;;;;;;;-148.56;100.00;61375.16;4926197;28;20341;-25
2022/08/08 09:50:45;;;;;;;5.60;1.60;;;;;;;-148.56;100.00;61375.16;4944471;28;20092;-27
2022/08/08 09:53:12;;;;;;;3.00;1.63;;;;;;;-148.56;100.00;61375.16;4941505;28;20031;-27
2022/08/08 09:55:38;;;;;;;2.42;1.70;;;;;;;-148.56;100.00;61375.16;4944772;28;20145;-29
2022/08/08 09:58:13;;;;;;;4.25;1.67;;;;;;;-148.56;100.00;61375.16;4935432;28;20450;-29
2022/08/08 10:00:38;;;;;;;2.47;1.85;;;;;;;-148.56;100.00;61375.16;4936141;28;20026;-31
2022/08/08 10:03:04;;;;;;;2.80;1.60;;;;;;;-148.56;100.00;61375.16;4921603;28;20032;-30
2022/08/08 10:05:34;;;;;;;2.08;1.40;;;;;;;-148.56;100.00;61375.16;4939962;28;21427;-27
2022/08/08 10:07:59;;;;;;;3.80;1.55;;;;;;;-148.56;100.00;61375.16;4940377;28;20034;-29
2022/08/08 10:10:32;;;;;;;2.97;1.50;;;;;;;-148.56;100.00;61375.16;4942872;28;20184;-32
2022/08/08 10:13:01;;;;;;;2.78;1.38;;;;;;;-148.56;100.00;61375.16;4936782;28;20031;-25
2022/08/08 10:15:27;;;;;;;3.15;1.67;;;;;;;-148.56;100.00;61375.16;4942125;28;21131;-28
2022/08/08 10:17:53;;;;;;;3.75;1.63;;;;;;;-148.56;100.00;61375.16;4939974;28;20123;-30
2022/08/08 10:20:20;;;;;;;1.90;1.42;;;;;;;-148.56;100.00;61375.16;4941609;28;20533;-30
2022/08/08 10:22:59;;;;;;;2.85;1.33;;;;;;;-148.56;100.00;61375.16;4942637;28;20745;-28
2022/08/08 10:25:25;;;;;;;6.47;1.20;;;;;;;-148.56;100.00;61375.16;4937296;28;20121;-27
2022/08/08 10:27:52;;;;;;;4.35;1.65;;;;;;;-148.56;100.00;61375.16;4940504;28;20030;-34
2022/08/08 10:30:17;;;;;;;4.47;1.48;;;;;;;-148.56;100.00;61375.16;4942668;28;20038;-29
2022/08/08 10:32:51;;;;;;;6.22;1.80;;;;;;;-148.56;100.00;61375.16;4939509;28;20058;-32
2022/08/08 10:35:18;;;;;;;3.42;1.65;;;;;;;-148.56;100.00;61375.16;4933640;28;20042;-29
2022/08/08 10:37:55;;;;;;;5.63;1.50;;;;;;;-148.56;100.00;61375.16;4930441;28;20027;-29
2022/08/08 10:40:22;;;;;;;3.08;1.48;;;;;;;-148.56;100.00;61375.16;4938670;28;20026;-30
2022/08/08 10:42:48;;;;;;;9.15;1.63;;;;;;;-148.56;100.00;61375.16;4940538;28;20046;-27
2022/08/08 10:45:14;;;;;;;3.90;1.60;;;;;;;-148.56;100.00;61375.16;4940037;28;20062;-26
2022/08/08 10:47:39;;;;;;;2.95;1.83;;;;;;;-148.56;100.00;61375.16;4939670;28;20145;-31
2022/08/08 10:50:06;;;;;;;3.60;1.67;;;;;;;-148.56;100.00;61375.16;4926571;28;20133;-28
2022/08/08 10:52:38;;;;;;;2.88;1.55;;;;;;;-148.56;100.00;61375.16;4935096;28;20068;-28
2022/08/08 10:55:13;;;;;;;3.33;1.50;;;;;;;-148.56;100.00;61375.16;4933717;28;20080;-29
2022/08/08 10:57:46;;;;;;;3.70;1.60;;;;;;;-148.56;100.00;61375.16;4938453;28;20041;-27
2022/08/08 11:00:12;;;;;;;6.68;1.60;;;;;;;-148.56;100.00;61375.16;4941198;28;20061;-28
2022/08/08 11:02:38;;;;;;;3.50;1.33;;;;;;;-148.56;100.00;61375.16;4942275;28;20036;-26
2022/08/08 11:05:08;;;;;;;5.20;1.30;;;;;;;-148.56;100.00;61375.16;4945271;28;21030;-26
2022/08/08 11:07:36;;;;;;;2.50;1.35;;;;;;;-148.56;100.00;61375.16;4942817;28;20104;-30
2022/08/08 11:10:07;;;;;;;2.30;1.05;;;;;;;-148.56;100.00;61375.16;4938228;28;20027;-26
2022/08/08 11:12:33;;;;;;;3.78;1.65;;;;;;;-148.56;100.00;61375.16;4929372;28;20161;-31
2022/08/08 11:14:59;;;;;;;4.40;1.30;;;;;;;-148.56;100.00;61375.16;4930897;28;20107;-29
2022/08/08 11:17:29;;;;;;;2.20;1.30;;;;;;;-148.56;100.00;61375.16;4934925;28;20044;-27
2022/08/08 11:19:54;;;;;;;18.85;1.95;;;;;;;-148.56;100.00;61375.16;4930865;28;20026;-31
2022/08/08 11:22:23;;;;;;;7.88;1.80;;;;;;;-148.56;100.00;61375.16;4940195;28;20030;-32
2022/08/08 11:24:49;;;;;;;4.50;1.73;;;;;;;-148.56;100.00;61375.16;4934189;28;20034;-26
2022/08/08 11:27:14;;;;;;;7.43;1.98;;;;;;;-148.56;100.00;61375.16;4938639;28;20972;-30
2022/08/08 11:29:40;;;;;;;7.28;1.80;;;;;;;-148.56;100.00;61375.16;4939153;28;20554;-25
2022/08/08 11:32:05;;;;;;;5.72;1.55;;;;;;;-148.56;100.00;61375.16;4934877;28;20041;-30